METAR Data
IDs: Format: Raw Decoded Include TAF

Data at: 1142 UTC 21 Nov 2018

KABI 211052Z 15006KT 10SM CLR 03/00 A3030 RMK AO2 SLP259 T00280000
KABI 210952Z 16005KT 10SM CLR 03/M01 A3030 RMK AO2 SLP258 T00281006
KABI 210852Z 14006KT 10SM CLR 04/00 A3031 RMK AO2 SLP258 T00390000 58005
KABI 210752Z 14007KT 10SM CLR 03/M01 A3032 RMK AO2 SLP263 T00331006
KABI 210652Z 16006KT 10SM CLR 04/M01 A3033 RMK AO2 SLP268 T00391006
KABI 210552Z 16006KT 10SM CLR 04/00 A3032 RMK AO2 SLP266 T00390000 10117 20033 401501011 53003
KABI 210452Z 14006KT 10SM CLR 04/00 A3032 RMK AO2 SLP265 T00390000
KABI 210352Z 13007KT 10SM CLR 06/01 A3031 RMK AO2 SLP263 T00560006
KABI 210252Z 13007KT 10SM CLR 05/01 A3031 RMK AO2 SLP267 T00500006 50006
KABI 210152Z 13004KT 10SM CLR 06/01 A3031 RMK AO2 SLP270 T00610006
KABI 210052Z 10005KT 10SM CLR 09/01 A3031 RMK AO2 SLP265 T00890006
KABI 202352Z 08005KT 10SM CLR 12/01 A3029 RMK AO2 SLP260 T01170006 10150 20111 56004
KABI 202252Z 10005KT 10SM CLR 14/00 A3030 RMK AO2 SLP259 T01390000
KABI 202152Z 08005KT 10SM CLR 14/00 A3030 RMK AO2 SLP258 T01390000
KABI 202052Z 11004KT 10SM CLR 14/01 A3030 RMK AO2 SLP260 T01440006 56030
KABI 201952Z 06007KT 10SM CLR 14/01 A3032 RMK AO2 SLP267 T01390006
KABI 201852Z 09007KT 10SM CLR 13/00 A3036 RMK AO2 SLP279 T01280000
KABI 201752Z 10006KT 10SM CLR 11/01 A3040 RMK AO2 SLP293 T01110006 10111 21011 50002
KABI 201652Z 12008KT 10SM CLR 10/01 A3042 RMK AO2 SLP301 T01000006
KABI 201552Z 08004KT 10SM CLR 07/02 A3041 RMK AO2 SLP297 T00720022
KABI 201452Z 00000KT 8SM CLR 04/02 A3039 RMK AO2 SLP292 T00390017 53013
KABI 201352Z 00000KT 6SM BR CLR 01/M01 A3038 RMK AO2 SLP289 T00061006
KABI 201252Z 00000KT 9SM CLR 00/M01 A3036 RMK AO2 SLP283 T00001011
KABI 201152Z 00000KT 7SM CLR M01/M01 A3035 RMK AO2 SLP281 T10061011 10050 21011 53012
KABI 201052Z 00000KT 5SM BR CLR M01/M01 A3033 RMK AO2 SLP271 T10111011
KABI 200952Z 00000KT 7SM CLR 02/01 A3032 RMK AO2 SLP265 T00170011
KABI 200852Z 29003KT 7SM CLR 02/02 A3032 RMK AO2 SLP263 T00220017 51008
KABI 200752Z 00000KT 9SM CLR 01/00 A3031 RMK AO2 SLP263 T00110000
KABI 200652Z 30003KT 9SM CLR 03/02 A3030 RMK AO2 SLP260 T00330017
KABI 200552Z 00000KT 9SM CLR 04/02 A3029 RMK AO2 SLP257 T00440017 10117 20039 401500006 51016
KABI 200452Z 00000KT 10SM CLR 06/02 A3028 RMK AO2 SLP252 T00560017
KABI 200352Z 07005KT 10SM CLR 08/02 A3026 RMK AO2 SLP247 T00780022
KABI 200252Z 05005KT 10SM CLR 09/02 A3024 RMK AO2 SLP240 T00890022 51019
KABI 200152Z 05004KT 10SM CLR 09/03 A3023 RMK AO2 SLP235 T00940028
KABI 200052Z 03005KT 10SM CLR 11/03 A3021 RMK AO2 SLP227 T01060033
KABI 192352Z 03004KT 10SM CLR 12/03 A3019 RMK AO2 SLP219 T01170033 10150 20106 53012